クグルクトゥク の空港の天気 - METARとTAF

Coppermine ( CYCO / YCO ) - カナダ ヌナブト準州Kugluktuk
飛行場実況気象(Metar)
観測時間04/21 10:00 MDT (04/21 16:00 UTC)
風向・風速静穏 0m/s
視程10km以上
天気現象細氷
少しの雲 雲底高度 4570m
全天の4割程度の雲 雲底高度 7320m
気温-22℃
湿度84%
気圧1020.3hPa
METARCYCO 211600Z 00000KT 15SM IC FEW150 SCT240 M22/M24 A3012 RMK AS1CI3 SLP203
過去の天気等 Google飛行場航空写真 Wunderground天気予報

過去48時間のMETAR

飛行場予報(TAF)
発表時間: 4/21 06:39 MDT (4/21 12:39 UTC)
予報対象時間: 21日7時 MDT ~ 21日19時 MDT
風向・風速不定 2m/s
視程10km以上
天気現象細氷
少しの雲 雲底高度 1830m
全天の4割程度の雲 雲底高度 6710m
21日7時 MDT から 確率 30% で
視程1210m
天気現象細氷 もや
全天の8割程度の雲 雲底高度 90m
21日17時 MDT から
風向・風速東北東 4m/s
視程10km以上
全天の4割程度の雲 雲底高度 1220m
全天の8割程度の雲 雲底高度 2440m
21日17時 MDT ~ 21日19時 MDT に一時的に
視程8050m
天気現象弱い雪
全天の8割程度の雲 雲底高度 1220m
全天を覆う雲 雲底高度 2440m
TAF CYCO 211239Z 2113/2201 VRB03KT P6SM IC FEW060 SCT220
PROB30 2113/2116 3/4SM IC BR BKN003
FM212300 06008KT P6SM SCT040 BKN080
TEMPO 2123/2201 5SM -SN BKN040 OVC080 RMK NXT FCST BY 211900Z